sensor_id;sensor_type;location;lat;lon;timestamp;temperature;humidity
22321;DHT22;11328;53.928;18.522;2023-05-14T00:02:07;15.90;91.00
22321;DHT22;11328;53.928;18.522;2023-05-14T00:04:34;15.80;91.10
22321;DHT22;11328;53.928;18.522;2023-05-14T00:07:02;15.80;91.00
22321;DHT22;11328;53.928;18.522;2023-05-14T00:09:29;15.80;91.20
22321;DHT22;11328;53.928;18.522;2023-05-14T00:11:56;15.80;91.20
22321;DHT22;11328;53.928;18.522;2023-05-14T00:14:22;15.70;91.40
22321;DHT22;11328;53.928;18.522;2023-05-14T00:16:50;15.70;91.50
22321;DHT22;11328;53.928;18.522;2023-05-14T00:19:16;15.70;91.60
22321;DHT22;11328;53.928;18.522;2023-05-14T00:21:43;15.60;91.70
22321;DHT22;11328;53.928;18.522;2023-05-14T00:24:10;15.60;91.90
22321;DHT22;11328;53.928;18.522;2023-05-14T00:26:37;15.60;92.00
22321;DHT22;11328;53.928;18.522;2023-05-14T00:29:04;15.50;92.00
22321;DHT22;11328;53.928;18.522;2023-05-14T00:31:31;15.40;92.20
22321;DHT22;11328;53.928;18.522;2023-05-14T00:33:58;15.40;92.40
22321;DHT22;11328;53.928;18.522;2023-05-14T00:36:25;15.40;92.50
22321;DHT22;11328;53.928;18.522;2023-05-14T00:38:52;15.40;92.50
22321;DHT22;11328;53.928;18.522;2023-05-14T00:41:19;15.40;92.70
22321;DHT22;11328;53.928;18.522;2023-05-14T00:43:47;15.30;93.00
22321;DHT22;11328;53.928;18.522;2023-05-14T00:46:14;15.20;93.10
22321;DHT22;11328;53.928;18.522;2023-05-14T00:48:42;15.30;93.00
22321;DHT22;11328;53.928;18.522;2023-05-14T00:51:10;15.30;93.00
22321;DHT22;11328;53.928;18.522;2023-05-14T00:53:37;15.30;93.10
22321;DHT22;11328;53.928;18.522;2023-05-14T00:56:04;15.30;93.20
22321;DHT22;11328;53.928;18.522;2023-05-14T00:58:33;15.30;93.30
22321;DHT22;11328;53.928;18.522;2023-05-14T01:01:00;15.30;93.50
22321;DHT22;11328;53.928;18.522;2023-05-14T01:03:29;15.20;93.30
22321;DHT22;11328;53.928;18.522;2023-05-14T01:06:30;15.20;93.50
22321;DHT22;11328;53.928;18.522;2023-05-14T01:09:47;15.20;93.40
22321;DHT22;11328;53.928;18.522;2023-05-14T01:12:39;15.10;93.50
22321;DHT22;11328;53.928;18.522;2023-05-14T01:15:27;15.00;93.80
22321;DHT22;11328;53.928;18.522;2023-05-14T01:18:01;15.00;93.90
22321;DHT22;11328;53.928;18.522;2023-05-14T01:20:31;14.80;94.20
22321;DHT22;11328;53.928;18.522;2023-05-14T01:22:58;14.90;94.00
22321;DHT22;11328;53.928;18.522;2023-05-14T01:25:26;14.80;93.80
22321;DHT22;11328;53.928;18.522;2023-05-14T01:28:20;14.80;93.80
22321;DHT22;11328;53.928;18.522;2023-05-14T01:31:11;14.80;93.90
22321;DHT22;11328;53.928;18.522;2023-05-14T01:33:44;14.70;94.10
22321;DHT22;11328;53.928;18.522;2023-05-14T01:36:14;14.70;94.20
22321;DHT22;11328;53.928;18.522;2023-05-14T01:38:42;14.70;94.20
22321;DHT22;11328;53.928;18.522;2023-05-14T01:41:12;14.70;94.10
22321;DHT22;11328;53.928;18.522;2023-05-14T01:43:40;14.70;94.10
22321;DHT22;11328;53.928;18.522;2023-05-14T01:46:07;14.70;94.50
22321;DHT22;11328;53.928;18.522;2023-05-14T01:48:35;14.70;94.70
22321;DHT22;11328;53.928;18.522;2023-05-14T01:51:03;14.60;94.60
22321;DHT22;11328;53.928;18.522;2023-05-14T01:53:30;14.60;94.50
22321;DHT22;11328;53.928;18.522;2023-05-14T01:55:57;14.50;94.50
22321;DHT22;11328;53.928;18.522;2023-05-14T01:58:24;14.60;94.50
22321;DHT22;11328;53.928;18.522;2023-05-14T02:00:50;14.50;94.40
22321;DHT22;11328;53.928;18.522;2023-05-14T02:03:17;14.50;94.60
22321;DHT22;11328;53.928;18.522;2023-05-14T02:05:44;14.50;94.60
22321;DHT22;11328;53.928;18.522;2023-05-14T02:08:11;14.50;94.60
22321;DHT22;11328;53.928;18.522;2023-05-14T02:10:38;14.50;94.70
22321;DHT22;11328;53.928;18.522;2023-05-14T02:13:05;14.50;94.70
22321;DHT22;11328;53.928;18.522;2023-05-14T02:15:32;14.50;94.60
22321;DHT22;11328;53.928;18.522;2023-05-14T02:17:59;14.50;94.60
22321;DHT22;11328;53.928;18.522;2023-05-14T02:20:25;14.50;94.70
22321;DHT22;11328;53.928;18.522;2023-05-14T02:22:52;14.50;95.00
22321;DHT22;11328;53.928;18.522;2023-05-14T02:25:19;14.50;95.00
22321;DHT22;11328;53.928;18.522;2023-05-14T02:27:46;14.50;95.10
22321;DHT22;11328;53.928;18.522;2023-05-14T02:30:13;14.50;95.30
22321;DHT22;11328;53.928;18.522;2023-05-14T02:32:40;14.50;95.40
22321;DHT22;11328;53.928;18.522;2023-05-14T02:35:07;14.50;95.40
22321;DHT22;11328;53.928;18.522;2023-05-14T02:37:35;14.40;95.60
22321;DHT22;11328;53.928;18.522;2023-05-14T02:40:01;14.50;95.60
22321;DHT22;11328;53.928;18.522;2023-05-14T02:42:30;14.50;95.70
22321;DHT22;11328;53.928;18.522;2023-05-14T02:44:57;14.50;95.70
22321;DHT22;11328;53.928;18.522;2023-05-14T02:47:24;14.50;95.70
22321;DHT22;11328;53.928;18.522;2023-05-14T02:49:51;14.50;95.70
22321;DHT22;11328;53.928;18.522;2023-05-14T02:52:18;14.50;95.70
22321;DHT22;11328;53.928;18.522;2023-05-14T02:54:44;14.60;95.60
22321;DHT22;11328;53.928;18.522;2023-05-14T02:57:11;14.50;95.70
22321;DHT22;11328;53.928;18.522;2023-05-14T02:59:39;14.50;96.00
22321;DHT22;11328;53.928;18.522;2023-05-14T03:02:06;14.50;96.20
22321;DHT22;11328;53.928;18.522;2023-05-14T03:04:33;14.50;95.90
22321;DHT22;11328;53.928;18.522;2023-05-14T03:07:00;14.50;96.10
22321;DHT22;11328;53.928;18.522;2023-05-14T03:09:27;14.40;96.30
22321;DHT22;11328;53.928;18.522;2023-05-14T03:11:54;14.50;96.20
22321;DHT22;11328;53.928;18.522;2023-05-14T03:14:21;14.40;96.40
22321;DHT22;11328;53.928;18.522;2023-05-14T03:16:47;14.40;96.40
22321;DHT22;11328;53.928;18.522;2023-05-14T03:19:15;14.40;96.80
22321;DHT22;11328;53.928;18.522;2023-05-14T03:21:42;14.40;96.70
22321;DHT22;11328;53.928;18.522;2023-05-14T03:24:09;14.30;96.80
22321;DHT22;11328;53.928;18.522;2023-05-14T03:26:36;14.30;96.70
22321;DHT22;11328;53.928;18.522;2023-05-14T03:29:03;14.30;96.90
22321;DHT22;11328;53.928;18.522;2023-05-14T03:31:30;14.30;97.00
22321;DHT22;11328;53.928;18.522;2023-05-14T03:33:57;14.30;97.20
22321;DHT22;11328;53.928;18.522;2023-05-14T03:36:24;14.30;97.10
22321;DHT22;11328;53.928;18.522;2023-05-14T03:38:50;14.30;97.20
22321;DHT22;11328;53.928;18.522;2023-05-14T03:41:17;14.30;97.30
22321;DHT22;11328;53.928;18.522;2023-05-14T03:43:45;14.30;97.30
22321;DHT22;11328;53.928;18.522;2023-05-14T03:46:12;14.40;97.20
22321;DHT22;11328;53.928;18.522;2023-05-14T03:48:39;14.40;97.10
22321;DHT22;11328;53.928;18.522;2023-05-14T03:51:06;14.40;97.20
22321;DHT22;11328;53.928;18.522;2023-05-14T03:53:33;14.40;97.30
22321;DHT22;11328;53.928;18.522;2023-05-14T03:56:00;14.50;97.40
22321;DHT22;11328;53.928;18.522;2023-05-14T03:58:27;14.50;97.40
22321;DHT22;11328;53.928;18.522;2023-05-14T04:00:53;14.50;97.40
22321;DHT22;11328;53.928;18.522;2023-05-14T04:03:20;14.50;97.60
22321;DHT22;11328;53.928;18.522;2023-05-14T04:05:47;14.50;97.70
22321;DHT22;11328;53.928;18.522;2023-05-14T04:08:14;14.50;97.90
22321;DHT22;11328;53.928;18.522;2023-05-14T04:10:42;14.40;97.90
22321;DHT22;11328;53.928;18.522;2023-05-14T04:13:09;14.50;98.30
22321;DHT22;11328;53.928;18.522;2023-05-14T04:15:35;14.50;97.90
22321;DHT22;11328;53.928;18.522;2023-05-14T04:18:04;14.50;97.90
22321;DHT22;11328;53.928;18.522;2023-05-14T04:20:31;14.60;98.00
22321;DHT22;11328;53.928;18.522;2023-05-14T04:22:58;14.60;97.90
22321;DHT22;11328;53.928;18.522;2023-05-14T04:25:25;14.70;98.00
22321;DHT22;11328;53.928;18.522;2023-05-14T04:27:52;14.70;98.00
22321;DHT22;11328;53.928;18.522;2023-05-14T04:30:19;14.70;97.90
22321;DHT22;11328;53.928;18.522;2023-05-14T04:32:46;14.80;98.00
22321;DHT22;11328;53.928;18.522;2023-05-14T04:35:14;14.90;98.00
22321;DHT22;11328;53.928;18.522;2023-05-14T04:37:41;14.90;97.60
22321;DHT22;11328;53.928;18.522;2023-05-14T04:40:08;14.90;97.80
22321;DHT22;11328;53.928;18.522;2023-05-14T04:42:38;15.00;97.70
22321;DHT22;11328;53.928;18.522;2023-05-14T04:45:05;15.00;97.70
22321;DHT22;11328;53.928;18.522;2023-05-14T04:47:33;15.10;97.60
22321;DHT22;11328;53.928;18.522;2023-05-14T04:50:00;15.10;97.40
22321;DHT22;11328;53.928;18.522;2023-05-14T04:52:27;15.30;97.30
22321;DHT22;11328;53.928;18.522;2023-05-14T04:54:54;15.30;97.30
22321;DHT22;11328;53.928;18.522;2023-05-14T04:57:22;15.40;97.30
22321;DHT22;11328;53.928;18.522;2023-05-14T04:59:49;15.50;97.10
22321;DHT22;11328;53.928;18.522;2023-05-14T05:02:16;15.60;97.30
22321;DHT22;11328;53.928;18.522;2023-05-14T05:04:43;15.70;97.40
22321;DHT22;11328;53.928;18.522;2023-05-14T05:07:12;15.80;97.40
22321;DHT22;11328;53.928;18.522;2023-05-14T05:09:42;15.90;97.30
22321;DHT22;11328;53.928;18.522;2023-05-14T05:12:09;16.00;97.50
22321;DHT22;11328;53.928;18.522;2023-05-14T05:14:36;16.20;97.40
22321;DHT22;11328;53.928;18.522;2023-05-14T05:17:03;16.30;97.40
22321;DHT22;11328;53.928;18.522;2023-05-14T05:19:30;16.50;97.00
22321;DHT22;11328;53.928;18.522;2023-05-14T05:22:09;16.60;96.50
22321;DHT22;11328;53.928;18.522;2023-05-14T05:24:36;16.70;96.50
22321;DHT22;11328;53.928;18.522;2023-05-14T05:27:03;16.90;95.70
22321;DHT22;11328;53.928;18.522;2023-05-14T05:29:31;17.10;95.70
22321;DHT22;11328;53.928;18.522;2023-05-14T05:31:58;17.20;95.40
22321;DHT22;11328;53.928;18.522;2023-05-14T05:34:25;17.40;95.20
22321;DHT22;11328;53.928;18.522;2023-05-14T05:36:52;17.50;95.10
22321;DHT22;11328;53.928;18.522;2023-05-14T05:39:19;17.70;94.70
22321;DHT22;11328;53.928;18.522;2023-05-14T05:41:46;17.90;94.50
22321;DHT22;11328;53.928;18.522;2023-05-14T05:44:12;17.90;94.10
22321;DHT22;11328;53.928;18.522;2023-05-14T05:46:39;18.10;94.30
22321;DHT22;11328;53.928;18.522;2023-05-14T05:49:06;18.40;93.90
22321;DHT22;11328;53.928;18.522;2023-05-14T05:51:33;18.50;93.40
22321;DHT22;11328;53.928;18.522;2023-05-14T05:54:00;18.70;93.20
22321;DHT22;11328;53.928;18.522;2023-05-14T05:56:27;18.90;93.40
22321;DHT22;11328;53.928;18.522;2023-05-14T05:58:54;19.10;92.80
22321;DHT22;11328;53.928;18.522;2023-05-14T06:01:21;19.10;92.00
22321;DHT22;11328;53.928;18.522;2023-05-14T06:03:48;19.20;91.70
22321;DHT22;11328;53.928;18.522;2023-05-14T06:06:15;19.40;92.10
22321;DHT22;11328;53.928;18.522;2023-05-14T06:08:42;19.50;92.10
22321;DHT22;11328;53.928;18.522;2023-05-14T06:11:09;19.70;92.20
22321;DHT22;11328;53.928;18.522;2023-05-14T06:13:36;19.90;92.40
22321;DHT22;11328;53.928;18.522;2023-05-14T06:16:03;20.20;91.30
22321;DHT22;11328;53.928;18.522;2023-05-14T06:18:30;20.30;91.40
22321;DHT22;11328;53.928;18.522;2023-05-14T06:20:57;20.60;91.40
22321;DHT22;11328;53.928;18.522;2023-05-14T06:23:25;20.80;90.70
22321;DHT22;11328;53.928;18.522;2023-05-14T06:25:52;20.90;90.10
22321;DHT22;11328;53.928;18.522;2023-05-14T06:28:19;21.00;88.50
22321;DHT22;11328;53.928;18.522;2023-05-14T06:30:48;21.20;89.30
22321;DHT22;11328;53.928;18.522;2023-05-14T06:33:16;21.50;88.90
22321;DHT22;11328;53.928;18.522;2023-05-14T06:35:46;21.80;87.00
22321;DHT22;11328;53.928;18.522;2023-05-14T06:38:12;22.00;85.10
22321;DHT22;11328;53.928;18.522;2023-05-14T06:40:39;22.40;84.80
22321;DHT22;11328;53.928;18.522;2023-05-14T06:43:06;22.60;82.10
22321;DHT22;11328;53.928;18.522;2023-05-14T06:45:33;22.80;82.40
22321;DHT22;11328;53.928;18.522;2023-05-14T06:48:00;22.90;81.90
22321;DHT22;11328;53.928;18.522;2023-05-14T06:50:27;23.10;80.30
22321;DHT22;11328;53.928;18.522;2023-05-14T06:52:54;23.30;79.50
22321;DHT22;11328;53.928;18.522;2023-05-14T06:55:21;23.40;80.30
22321;DHT22;11328;53.928;18.522;2023-05-14T06:57:48;23.60;79.40
22321;DHT22;11328;53.928;18.522;2023-05-14T07:00:16;23.70;78.70
22321;DHT22;11328;53.928;18.522;2023-05-14T07:02:43;23.80;77.60
22321;DHT22;11328;53.928;18.522;2023-05-14T07:05:10;23.80;75.30
22321;DHT22;11328;53.928;18.522;2023-05-14T07:07:37;23.90;75.00
22321;DHT22;11328;53.928;18.522;2023-05-14T07:10:05;24.20;75.90
22321;DHT22;11328;53.928;18.522;2023-05-14T07:12:33;24.30;77.30
22321;DHT22;11328;53.928;18.522;2023-05-14T07:15:01;24.50;78.50
22321;DHT22;11328;53.928;18.522;2023-05-14T07:17:28;24.70;77.00
22321;DHT22;11328;53.928;18.522;2023-05-14T07:19:55;24.80;75.40
22321;DHT22;11328;53.928;18.522;2023-05-14T07:22:22;24.80;76.30
22321;DHT22;11328;53.928;18.522;2023-05-14T07:24:49;24.90;75.30
22321;DHT22;11328;53.928;18.522;2023-05-14T07:27:15;25.20;76.80
22321;DHT22;11328;53.928;18.522;2023-05-14T07:29:43;25.30;75.30
22321;DHT22;11328;53.928;18.522;2023-05-14T07:32:10;25.30;75.10
22321;DHT22;11328;53.928;18.522;2023-05-14T07:34:41;25.30;72.50
22321;DHT22;11328;53.928;18.522;2023-05-14T07:37:08;25.30;73.60
22321;DHT22;11328;53.928;18.522;2023-05-14T07:39:35;25.60;73.70
22321;DHT22;11328;53.928;18.522;2023-05-14T07:42:03;25.80;75.00
22321;DHT22;11328;53.928;18.522;2023-05-14T07:44:30;26.00;73.70
22321;DHT22;11328;53.928;18.522;2023-05-14T07:46:59;26.00;73.00
22321;DHT22;11328;53.928;18.522;2023-05-14T07:49:26;26.10;72.50
22321;DHT22;11328;53.928;18.522;2023-05-14T07:51:53;26.10;73.00
22321;DHT22;11328;53.928;18.522;2023-05-14T07:54:19;26.20;71.90
22321;DHT22;11328;53.928;18.522;2023-05-14T07:56:46;26.30;71.90
22321;DHT22;11328;53.928;18.522;2023-05-14T07:59:13;26.30;69.70
22321;DHT22;11328;53.928;18.522;2023-05-14T08:01:40;26.30;69.70
22321;DHT22;11328;53.928;18.522;2023-05-14T08:04:07;26.50;70.90
22321;DHT22;11328;53.928;18.522;2023-05-14T08:06:37;26.60;68.70
22321;DHT22;11328;53.928;18.522;2023-05-14T08:09:04;26.90;67.90
22321;DHT22;11328;53.928;18.522;2023-05-14T08:11:30;27.10;66.50
22321;DHT22;11328;53.928;18.522;2023-05-14T08:13:57;27.20;65.80
22321;DHT22;11328;53.928;18.522;2023-05-14T08:16:24;27.20;65.60
22321;DHT22;11328;53.928;18.522;2023-05-14T08:18:51;27.20;64.70
22321;DHT22;11328;53.928;18.522;2023-05-14T08:21:18;27.10;64.50
22321;DHT22;11328;53.928;18.522;2023-05-14T08:23:46;27.20;64.60
22321;DHT22;11328;53.928;18.522;2023-05-14T08:26:13;27.10;66.60
22321;DHT22;11328;53.928;18.522;2023-05-14T08:28:39;27.10;64.90
22321;DHT22;11328;53.928;18.522;2023-05-14T08:31:06;27.00;66.20
22321;DHT22;11328;53.928;18.522;2023-05-14T08:33:33;26.80;66.60
22321;DHT22;11328;53.928;18.522;2023-05-14T08:36:00;26.70;63.80
22321;DHT22;11328;53.928;18.522;2023-05-14T08:38:27;26.70;66.30
22321;DHT22;11328;53.928;18.522;2023-05-14T08:40:58;26.60;65.70
22321;DHT22;11328;53.928;18.522;2023-05-14T08:43:29;26.70;65.70
22321;DHT22;11328;53.928;18.522;2023-05-14T08:46:12;26.90;66.10
22321;DHT22;11328;53.928;18.522;2023-05-14T08:48:41;26.70;65.50
22321;DHT22;11328;53.928;18.522;2023-05-14T08:51:09;26.70;64.70
22321;DHT22;11328;53.928;18.522;2023-05-14T08:53:36;26.90;65.00
22321;DHT22;11328;53.928;18.522;2023-05-14T08:56:06;26.80;66.30
22321;DHT22;11328;53.928;18.522;2023-05-14T08:58:34;26.80;65.20
22321;DHT22;11328;53.928;18.522;2023-05-14T09:01:01;26.90;66.00
22321;DHT22;11328;53.928;18.522;2023-05-14T09:03:29;26.70;66.40
22321;DHT22;11328;53.928;18.522;2023-05-14T09:05:57;26.60;66.50
22321;DHT22;11328;53.928;18.522;2023-05-14T09:08:25;26.60;65.20
22321;DHT22;11328;53.928;18.522;2023-05-14T09:10:52;26.80;66.40
22321;DHT22;11328;53.928;18.522;2023-05-14T09:13:19;26.70;66.00
22321;DHT22;11328;53.928;18.522;2023-05-14T09:15:47;26.60;65.90
22321;DHT22;11328;53.928;18.522;2023-05-14T09:18:16;26.60;67.00
22321;DHT22;11328;53.928;18.522;2023-05-14T09:20:43;26.60;68.30
22321;DHT22;11328;53.928;18.522;2023-05-14T09:23:12;26.70;68.30
22321;DHT22;11328;53.928;18.522;2023-05-14T09:25:39;26.60;66.20
22321;DHT22;11328;53.928;18.522;2023-05-14T09:28:07;26.70;68.30
22321;DHT22;11328;53.928;18.522;2023-05-14T09:30:34;26.90;68.00
22321;DHT22;11328;53.928;18.522;2023-05-14T09:33:02;26.70;68.60
22321;DHT22;11328;53.928;18.522;2023-05-14T09:35:29;26.80;69.10
22321;DHT22;11328;53.928;18.522;2023-05-14T09:37:57;26.90;67.50
22321;DHT22;11328;53.928;18.522;2023-05-14T09:40:24;27.00;68.50
22321;DHT22;11328;53.928;18.522;2023-05-14T09:42:52;27.00;68.90
22321;DHT22;11328;53.928;18.522;2023-05-14T09:45:19;27.20;68.50
22321;DHT22;11328;53.928;18.522;2023-05-14T09:47:46;27.20;68.20
22321;DHT22;11328;53.928;18.522;2023-05-14T09:50:13;27.30;69.00
22321;DHT22;11328;53.928;18.522;2023-05-14T09:52:41;27.40;69.40
22321;DHT22;11328;53.928;18.522;2023-05-14T09:55:08;27.50;66.90
22321;DHT22;11328;53.928;18.522;2023-05-14T09:57:35;27.80;67.10
22321;DHT22;11328;53.928;18.522;2023-05-14T10:00:03;27.90;63.80
22321;DHT22;11328;53.928;18.522;2023-05-14T10:02:34;28.00;65.10
22321;DHT22;11328;53.928;18.522;2023-05-14T10:05:07;28.10;65.80
22321;DHT22;11328;53.928;18.522;2023-05-14T10:08:16;28.10;66.30
22321;DHT22;11328;53.928;18.522;2023-05-14T10:10:49;28.10;64.00
22321;DHT22;11328;53.928;18.522;2023-05-14T10:13:21;28.00;64.00
22321;DHT22;11328;53.928;18.522;2023-05-14T10:16:07;28.10;63.50
22321;DHT22;11328;53.928;18.522;2023-05-14T10:18:42;28.10;64.80
22321;DHT22;11328;53.928;18.522;2023-05-14T10:21:14;28.00;64.70
22321;DHT22;11328;53.928;18.522;2023-05-14T10:23:43;28.10;65.60
22321;DHT22;11328;53.928;18.522;2023-05-14T10:26:14;28.20;65.80
22321;DHT22;11328;53.928;18.522;2023-05-14T10:28:42;28.40;65.30
22321;DHT22;11328;53.928;18.522;2023-05-14T10:31:09;28.50;65.50
22321;DHT22;11328;53.928;18.522;2023-05-14T10:33:49;28.30;63.00
22321;DHT22;11328;53.928;18.522;2023-05-14T10:36:17;28.50;66.60
22321;DHT22;11328;53.928;18.522;2023-05-14T10:38:44;28.40;66.50
22321;DHT22;11328;53.928;18.522;2023-05-14T10:41:13;28.30;64.30
22321;DHT22;11328;53.928;18.522;2023-05-14T10:43:43;28.40;64.60
22321;DHT22;11328;53.928;18.522;2023-05-14T10:46:12;28.30;67.10
22321;DHT22;11328;53.928;18.522;2023-05-14T10:48:41;28.30;66.50
22321;DHT22;11328;53.928;18.522;2023-05-14T10:51:10;28.40;65.90
22321;DHT22;11328;53.928;18.522;2023-05-14T10:53:41;28.40;65.90
22321;DHT22;11328;53.928;18.522;2023-05-14T10:56:11;28.30;66.40
22321;DHT22;11328;53.928;18.522;2023-05-14T10:58:43;28.50;63.40
22321;DHT22;11328;53.928;18.522;2023-05-14T11:01:12;28.70;61.40
22321;DHT22;11328;53.928;18.522;2023-05-14T11:03:41;28.50;64.10
22321;DHT22;11328;53.928;18.522;2023-05-14T11:06:12;28.50;65.90
22321;DHT22;11328;53.928;18.522;2023-05-14T11:08:41;28.50;58.90
22321;DHT22;11328;53.928;18.522;2023-05-14T11:11:08;28.60;56.70
22321;DHT22;11328;53.928;18.522;2023-05-14T11:13:36;28.60;56.50
22321;DHT22;11328;53.928;18.522;2023-05-14T11:16:04;28.60;56.70
22321;DHT22;11328;53.928;18.522;2023-05-14T11:18:34;28.60;55.40
22321;DHT22;11328;53.928;18.522;2023-05-14T11:21:06;28.50;56.60
22321;DHT22;11328;53.928;18.522;2023-05-14T11:23:33;28.20;57.50
22321;DHT22;11328;53.928;18.522;2023-05-14T11:26:00;28.20;56.40
22321;DHT22;11328;53.928;18.522;2023-05-14T11:28:27;28.40;57.90
22321;DHT22;11328;53.928;18.522;2023-05-14T11:30:55;28.50;55.50
22321;DHT22;11328;53.928;18.522;2023-05-14T11:33:22;28.40;57.20
22321;DHT22;11328;53.928;18.522;2023-05-14T11:35:49;28.30;58.40
22321;DHT22;11328;53.928;18.522;2023-05-14T11:38:17;28.30;56.90
22321;DHT22;11328;53.928;18.522;2023-05-14T11:40:58;28.30;55.30
22321;DHT22;11328;53.928;18.522;2023-05-14T11:43:25;28.20;55.20
22321;DHT22;11328;53.928;18.522;2023-05-14T11:45:54;28.20;55.40
22321;DHT22;11328;53.928;18.522;2023-05-14T11:48:23;28.40;54.90
22321;DHT22;11328;53.928;18.522;2023-05-14T11:50:51;28.10;55.20
22321;DHT22;11328;53.928;18.522;2023-05-14T11:53:25;27.80;56.80
22321;DHT22;11328;53.928;18.522;2023-05-14T11:55:53;27.60;57.50
22321;DHT22;11328;53.928;18.522;2023-05-14T11:58:23;27.30;55.50
22321;DHT22;11328;53.928;18.522;2023-05-14T12:00:51;27.00;56.90
22321;DHT22;11328;53.928;18.522;2023-05-14T12:03:21;26.80;57.60
22321;DHT22;11328;53.928;18.522;2023-05-14T12:05:56;26.80;57.50
22321;DHT22;11328;53.928;18.522;2023-05-14T12:08:29;27.00;56.40
22321;DHT22;11328;53.928;18.522;2023-05-14T12:10:58;27.30;55.40
22321;DHT22;11328;53.928;18.522;2023-05-14T12:13:30;27.40;56.40
22321;DHT22;11328;53.928;18.522;2023-05-14T12:16:01;27.40;56.90
22321;DHT22;11328;53.928;18.522;2023-05-14T12:18:30;27.40;56.70
22321;DHT22;11328;53.928;18.522;2023-05-14T12:21:02;27.30;57.40
22321;DHT22;11328;53.928;18.522;2023-05-14T12:23:31;27.20;57.40
22321;DHT22;11328;53.928;18.522;2023-05-14T12:26:06;26.90;57.30
22321;DHT22;11328;53.928;18.522;2023-05-14T12:28:34;26.60;57.40
22321;DHT22;11328;53.928;18.522;2023-05-14T12:31:04;26.60;57.30
22321;DHT22;11328;53.928;18.522;2023-05-14T12:33:31;26.60;58.00
22321;DHT22;11328;53.928;18.522;2023-05-14T12:35:58;26.80;59.10
22321;DHT22;11328;53.928;18.522;2023-05-14T12:38:39;26.90;56.90
22321;DHT22;11328;53.928;18.522;2023-05-14T12:41:07;26.80;59.00
22321;DHT22;11328;53.928;18.522;2023-05-14T12:43:33;26.80;59.70
22321;DHT22;11328;53.928;18.522;2023-05-14T12:46:00;26.60;58.30
22321;DHT22;11328;53.928;18.522;2023-05-14T12:48:27;26.40;56.40
22321;DHT22;11328;53.928;18.522;2023-05-14T12:50:54;26.20;56.50
22321;DHT22;11328;53.928;18.522;2023-05-14T12:53:21;26.00;56.40
22321;DHT22;11328;53.928;18.522;2023-05-14T12:55:48;25.80;56.50
22321;DHT22;11328;53.928;18.522;2023-05-14T12:58:15;25.70;56.30
22321;DHT22;11328;53.928;18.522;2023-05-14T13:00:42;25.60;59.10
22321;DHT22;11328;53.928;18.522;2023-05-14T13:03:09;25.60;58.60
22321;DHT22;11328;53.928;18.522;2023-05-14T13:05:36;25.60;58.30
22321;DHT22;11328;53.928;18.522;2023-05-14T13:08:03;25.50;59.20
22321;DHT22;11328;53.928;18.522;2023-05-14T13:10:30;25.40;60.20
22321;DHT22;11328;53.928;18.522;2023-05-14T13:12:57;25.30;61.40
22321;DHT22;11328;53.928;18.522;2023-05-14T13:15:24;25.20;62.30
22321;DHT22;11328;53.928;18.522;2023-05-14T13:17:51;25.10;61.10
22321;DHT22;11328;53.928;18.522;2023-05-14T13:20:18;25.00;60.90
22321;DHT22;11328;53.928;18.522;2023-05-14T13:22:45;25.20;60.60
22321;DHT22;11328;53.928;18.522;2023-05-14T13:25:12;25.20;60.80
22321;DHT22;11328;53.928;18.522;2023-05-14T13:27:39;25.30;63.80
22321;DHT22;11328;53.928;18.522;2023-05-14T13:30:06;25.40;64.00
22321;DHT22;11328;53.928;18.522;2023-05-14T13:32:33;25.40;65.30
22321;DHT22;11328;53.928;18.522;2023-05-14T13:35:00;25.50;65.00
22321;DHT22;11328;53.928;18.522;2023-05-14T13:37:27;25.60;65.20
22321;DHT22;11328;53.928;18.522;2023-05-14T13:39:54;25.50;67.40
22321;DHT22;11328;53.928;18.522;2023-05-14T13:42:21;25.50;66.30
22321;DHT22;11328;53.928;18.522;2023-05-14T13:44:49;25.40;60.00
22321;DHT22;11328;53.928;18.522;2023-05-14T13:47:16;25.30;61.00
22321;DHT22;11328;53.928;18.522;2023-05-14T13:49:43;25.30;62.40
22321;DHT22;11328;53.928;18.522;2023-05-14T13:52:10;25.20;63.10
22321;DHT22;11328;53.928;18.522;2023-05-14T13:54:36;25.20;63.50
22321;DHT22;11328;53.928;18.522;2023-05-14T13:57:04;25.20;62.30
22321;DHT22;11328;53.928;18.522;2023-05-14T13:59:31;25.20;62.60
22321;DHT22;11328;53.928;18.522;2023-05-14T14:01:57;25.20;63.70
22321;DHT22;11328;53.928;18.522;2023-05-14T14:04:25;25.30;63.30
22321;DHT22;11328;53.928;18.522;2023-05-14T14:06:54;25.30;62.10
22321;DHT22;11328;53.928;18.522;2023-05-14T14:09:22;25.30;61.60
22321;DHT22;11328;53.928;18.522;2023-05-14T14:11:50;25.30;62.80
22321;DHT22;11328;53.928;18.522;2023-05-14T14:14:17;25.30;61.40
22321;DHT22;11328;53.928;18.522;2023-05-14T14:16:44;25.30;60.40
22321;DHT22;11328;53.928;18.522;2023-05-14T14:19:11;25.40;62.70
22321;DHT22;11328;53.928;18.522;2023-05-14T14:21:38;25.40;61.00
22321;DHT22;11328;53.928;18.522;2023-05-14T14:24:08;25.40;60.60
22321;DHT22;11328;53.928;18.522;2023-05-14T14:26:35;25.30;61.10
22321;DHT22;11328;53.928;18.522;2023-05-14T14:29:02;25.40;60.90
22321;DHT22;11328;53.928;18.522;2023-05-14T14:31:28;25.40;61.60
22321;DHT22;11328;53.928;18.522;2023-05-14T14:33:55;25.30;61.90
22321;DHT22;11328;53.928;18.522;2023-05-14T14:36:22;25.30;63.10
22321;DHT22;11328;53.928;18.522;2023-05-14T14:38:49;25.30;63.10
22321;DHT22;11328;53.928;18.522;2023-05-14T14:41:16;25.30;60.40
22321;DHT22;11328;53.928;18.522;2023-05-14T14:43:43;25.20;59.60
22321;DHT22;11328;53.928;18.522;2023-05-14T14:46:10;25.20;60.70
22321;DHT22;11328;53.928;18.522;2023-05-14T14:48:37;25.20;59.80
22321;DHT22;11328;53.928;18.522;2023-05-14T14:51:07;25.20;60.60
22321;DHT22;11328;53.928;18.522;2023-05-14T14:53:35;25.20;62.40
22321;DHT22;11328;53.928;18.522;2023-05-14T15:08:37;25.10;63.20
22321;DHT22;11328;53.928;18.522;2023-05-14T15:11:04;25.70;63.20
22321;DHT22;11328;53.928;18.522;2023-05-14T15:13:34;25.50;63.90
22321;DHT22;11328;53.928;18.522;2023-05-14T15:16:01;25.30;65.20
22321;DHT22;11328;53.928;18.522;2023-05-14T15:18:28;25.20;65.40
22321;DHT22;11328;53.928;18.522;2023-05-14T15:20:55;25.20;65.40
22321;DHT22;11328;53.928;18.522;2023-05-14T15:23:23;25.20;65.60
22321;DHT22;11328;53.928;18.522;2023-05-14T15:25:50;25.20;64.50
22321;DHT22;11328;53.928;18.522;2023-05-14T15:28:17;25.20;65.80
22321;DHT22;11328;53.928;18.522;2023-05-14T15:30:46;25.20;65.80
22321;DHT22;11328;53.928;18.522;2023-05-14T15:33:13;25.20;64.10
22321;DHT22;11328;53.928;18.522;2023-05-14T15:35:44;25.20;63.80